createdAt,value
2016-02-03T00:00:20.149Z,719.82
2016-02-03T00:00:33.790Z,720.19
2016-02-03T00:00:48.633Z,719.99
2016-02-03T00:01:02.589Z,719.69
2016-02-03T00:01:16.839Z,719.72
2016-02-03T00:01:31.433Z,720.08
2016-02-03T00:01:45.497Z,719.54
2016-02-03T00:02:14.436Z,719.78
2016-02-03T00:02:28.499Z,719.97
2016-02-03T00:02:42.686Z,719.05
2016-02-03T00:03:25.299Z,719.92
2016-02-03T00:03:38.767Z,719.94
2016-02-03T00:04:07.255Z,719.58
2016-02-03T00:04:21.114Z,719.32
2016-02-03T00:05:06.163Z,720.06
2016-02-03T00:05:23.054Z,719.47
2016-02-03T00:05:37.350Z,720.54
2016-02-03T00:06:08.338Z,719.87
2016-02-03T00:06:36.728Z,719.76
2016-02-03T00:07:05.091Z,720.16
2016-02-03T00:07:22.466Z,719.53
2016-02-03T00:07:36.435Z,719.64
2016-02-03T00:08:07.641Z,719.91
2016-02-03T00:08:39.313Z,720.21
2016-02-03T00:08:53.109Z,719.7
2016-02-03T00:09:07.471Z,719.77
2016-02-03T00:09:25.299Z,719.66
2016-02-03T00:09:53.096Z,719.73
2016-02-03T00:10:07.676Z,719.12
2016-02-03T00:10:24.457Z,719.46
2016-02-03T00:10:37.723Z,719.96
2016-02-03T00:10:51.848Z,719.9
2016-02-03T00:11:20.055Z,719.72
2016-02-03T00:11:33.102Z,719.74
2016-02-03T00:11:46.789Z,719.77
2016-02-03T00:12:14.557Z,719.61
2016-02-03T00:12:28.823Z,719.66
2016-02-03T00:12:56.963Z,719.89
2016-02-03T00:13:24.997Z,720.19
2016-02-03T00:13:38.998Z,719.74
2016-02-03T00:13:53.890Z,719.97
2016-02-03T00:14:35.861Z,719.75
2016-02-03T00:15:03.974Z,719.98
2016-02-03T00:15:32.068Z,719.22
2016-02-03T00:15:49.552Z,719.6
2016-02-03T00:16:03.726Z,719.41
2016-02-03T00:16:32.320Z,719.91
2016-02-03T00:17:00.354Z,719.49
2016-02-03T00:17:15.792Z,719.83
2016-02-03T00:17:29.698Z,719.91
2016-02-03T00:17:43.870Z,719.52
2016-02-03T00:17:57.870Z,719.6
2016-02-03T00:18:11.700Z,719.43
2016-02-03T00:19:08.516Z,719.89
2016-02-03T00:19:23.204Z,719.7
2016-02-03T00:19:37.376Z,719.87
2016-02-03T00:19:51.704Z,719.86
2016-02-03T00:20:05.941Z,719.63
2016-02-03T00:20:19.769Z,719.76
2016-02-03T00:20:36.769Z,719.74
2016-02-03T00:20:51.035Z,719.69
2016-02-03T00:21:05.272Z,719.6
2016-02-03T00:21:22.382Z,719.76
2016-02-03T00:21:42.663Z,719.3
2016-02-03T00:21:56.507Z,719.91
2016-02-03T00:22:11.024Z,719.19
2016-02-03T00:22:30.946Z,719.84
2016-02-03T00:22:48.446Z,719.72
2016-02-03T00:23:02.323Z,719.45
2016-02-03T00:23:32.979Z,719.52
2016-02-03T00:23:47.265Z,719.34
2016-02-03T00:24:01.097Z,719.58
2016-02-03T00:24:29.284Z,719.52
2016-02-03T00:24:43.206Z,719.41
2016-02-03T00:24:57.300Z,719.91
2016-02-03T00:25:11.614Z,719.82
2016-02-03T00:25:28.567Z,719.53
2016-02-03T00:25:42.817Z,719.88
2016-02-03T00:26:10.742Z,719.6
2016-02-03T00:26:28.758Z,719.36
2016-02-03T00:26:42.789Z,719.36
2016-02-03T00:27:11.213Z,720.02
2016-02-03T00:27:25.494Z,719.82
2016-02-03T00:27:39.291Z,720.09
2016-02-03T00:27:53.342Z,719.43
2016-02-03T00:28:06.954Z,719.25
2016-02-03T00:28:35.548Z,719.41
2016-02-03T00:29:03.520Z,719.51
2016-02-03T00:29:23.973Z,719.64
2016-02-03T00:29:52.051Z,719.65
2016-02-03T00:30:08.898Z,719.54
2016-02-03T00:30:23.476Z,718.99
2016-02-03T00:30:40.867Z,719.46
2016-02-03T00:30:54.789Z,719.26
2016-02-03T00:31:12.134Z,719.84
2016-02-03T00:31:25.776Z,719.79
2016-02-03T00:31:40.073Z,719.97
2016-02-03T00:31:53.791Z,719.64
2016-02-03T00:32:08.357Z,719.58
2016-02-03T00:32:24.388Z,719.59
2016-02-03T00:32:37.556Z,719.58
2016-02-03T00:32:51.728Z,719.41
2016-02-03T00:33:09.199Z,719.79
2016-02-03T00:33:57.964Z,719.43
2016-02-03T00:34:12.297Z,719.21
2016-02-03T00:34:26.234Z,719.43
2016-02-03T00:34:40.984Z,718.96
2016-02-03T00:35:37.470Z,719.97
2016-02-03T00:35:51.736Z,719.82
2016-02-03T00:36:08.739Z,719.58
2016-02-03T00:36:26.005Z,719.24
2016-02-03T00:36:54.161Z,719.37
2016-02-03T00:37:45.258Z,719.03
2016-02-03T00:37:59.636Z,719.5
2016-02-03T00:38:27.839Z,720.02
2016-02-03T00:38:45.026Z,720.05
2016-02-03T00:38:58.979Z,720.06
2016-02-03T00:39:13.186Z,719.08
2016-02-03T00:39:27.232Z,719.79
2016-02-03T00:39:43.967Z,719.49
2016-02-03T00:40:00.875Z,719.69
2016-02-03T00:40:15.500Z,719.49
2016-02-03T00:40:29.766Z,719.55
2016-02-03T00:40:43.844Z,719.64
2016-02-03T00:40:58.156Z,718.96
2016-02-03T00:41:15.187Z,719.1
2016-02-03T00:41:33.062Z,719.04
2016-02-03T00:41:47.765Z,719.06
2016-02-03T00:42:21.787Z,719.68
2016-02-03T00:42:49.990Z,719.32
2016-02-03T00:43:04.164Z,718.68
2016-02-03T00:43:47.513Z,719.28
2016-02-03T00:44:02.064Z,719.56
2016-02-03T00:44:16.111Z,718.71
2016-02-03T00:44:30.611Z,719.27
2016-02-03T00:44:47.454Z,719.26
2016-02-03T00:45:01.644Z,718.92
2016-02-03T00:45:18.675Z,719.28
2016-02-03T00:45:32.644Z,719.56
2016-02-03T00:46:03.584Z,719.69
2016-02-03T00:46:23.522Z,719.16
2016-02-03T00:46:37.553Z,719.24
2016-02-03T00:46:53.709Z,719.81
2016-02-03T00:47:07.602Z,719.49
2016-02-03T00:47:35.805Z,719.49
2016-02-03T00:47:50.165Z,719.45
2016-02-03T00:48:13.574Z,719.19
2016-02-03T00:48:27.543Z,719.11
2016-02-03T00:48:44.699Z,719.04
2016-02-03T00:49:12.592Z,719.71
2016-02-03T00:49:26.610Z,720.04
2016-02-03T00:49:54.657Z,719.51
2016-02-03T00:50:17.471Z,719.79
2016-02-03T00:50:35.112Z,720.09
2016-02-03T00:50:52.253Z,718.87
2016-02-03T00:51:24.240Z,720.3
2016-02-03T00:51:51.991Z,719.14
2016-02-03T00:52:06.181Z,719.78
2016-02-03T00:52:33.337Z,719.53
2016-02-03T00:52:47.556Z,719.39
2016-02-03T00:53:01.624Z,719.61
2016-02-03T00:53:15.749Z,719.71
2016-02-03T00:53:57.952Z,719.43
2016-02-03T00:54:11.923Z,719.41
2016-02-03T00:54:25.970Z,719.91
2016-02-03T00:54:43.532Z,720.07
2016-02-03T00:55:11.051Z,719.35
2016-02-03T00:55:25.066Z,719.61
2016-02-03T00:55:39.238Z,719.07
2016-02-03T00:55:53.395Z,719.76
2016-02-03T00:56:07.756Z,719.33
2016-02-03T00:56:21.959Z,719.56
2016-02-03T00:56:39.554Z,719.54
2016-02-03T00:56:54.069Z,719.84
2016-02-03T00:57:22.027Z,719.48
2016-02-03T00:57:36.105Z,718.93
2016-02-03T00:58:03.419Z,719.55
2016-02-03T00:58:17.341Z,720.13
2016-02-03T00:58:31.294Z,719.38
2016-02-03T00:58:44.982Z,719.35
2016-02-03T00:58:58.669Z,719.27
2016-02-03T00:59:12.874Z,719.82
2016-02-03T00:59:26.999Z,719.55
2016-02-03T00:59:45.077Z,719.4
2016-02-03T00:59:58.952Z,719.51
2016-02-03T01:00:17.002Z,719.26
2016-02-03T01:00:30.924Z,719.23
2016-02-03T01:00:58.518Z,719.35
2016-02-03T01:01:13.396Z,719.1
2016-02-03T01:02:11.461Z,720.02
2016-02-03T01:02:25.321Z,719.31
2016-02-03T01:02:39.665Z,719.81
2016-02-03T01:03:08.932Z,719.08
2016-02-03T01:03:22.870Z,719.77
2016-02-03T01:04:07.438Z,719.21
2016-02-03T01:04:35.329Z,719.41
2016-02-03T01:04:49.969Z,719.83
2016-02-03T01:05:18.237Z,719.19
2016-02-03T01:05:46.143Z,719.7
2016-02-03T01:06:00.378Z,719.61
2016-02-03T01:06:20.976Z,719.68
2016-02-03T01:06:49.117Z,719.15
2016-02-03T01:07:03.541Z,719.23
2016-02-03T01:07:18.150Z,718.94
2016-02-03T01:07:32.619Z,718.9
2016-02-03T01:07:46.728Z,719.56
2016-02-03T01:08:14.731Z,719.62
2016-02-03T01:08:42.955Z,719.49
2016-02-03T01:08:57.361Z,719.5
2016-02-03T01:09:14.363Z,719.46
2016-02-03T01:09:45.941Z,719.74
2016-02-03T01:09:59.254Z,719.51
2016-02-03T01:10:13.117Z,719.4
2016-02-03T01:10:26.805Z,719.53
2016-02-03T01:10:43.508Z,719.83
2016-02-03T01:10:57.711Z,719.46
2016-02-03T01:11:40.400Z,719.85
2016-02-03T01:11:54.416Z,719.41
2016-02-03T01:12:09.357Z,719.33
2016-02-03T01:12:23.763Z,719.49
2016-02-03T01:12:37.638Z,719.97
2016-02-03T01:12:51.575Z,719.46
2016-02-03T01:13:05.562Z,719.61
2016-02-03T01:13:51.078Z,719.82
2016-02-03T01:14:04.924Z,719.68
2016-02-03T01:14:18.565Z,719.53
2016-02-03T01:14:32.533Z,719.54
2016-02-03T01:14:46.190Z,719.43
2016-02-03T01:15:00.627Z,719.47
2016-02-03T01:15:29.194Z,719.86
2016-02-03T01:15:57.866Z,719.41
2016-02-03T01:16:11.869Z,719.82
2016-02-03T01:16:25.947Z,719.5
2016-02-03T01:16:40.181Z,719.51
2016-02-03T01:16:54.603Z,719.68
2016-02-03T01:17:08.902Z,719.55
2016-02-03T01:17:23.183Z,719.64
2016-02-03T01:17:40.152Z,719.44
2016-02-03T01:18:08.576Z,719.38
2016-02-03T01:18:22.748Z,719.72
2016-02-03T01:18:39.810Z,719.54
2016-02-03T01:18:53.763Z,719.47
2016-02-03T01:19:22.063Z,719.6
2016-02-03T01:19:36.282Z,719.69
2016-02-03T01:19:49.938Z,719.83
2016-02-03T01:20:18.583Z,719.57
2016-02-03T01:20:32.442Z,719.49
2016-02-03T01:20:47.096Z,719.68
2016-02-03T01:21:02.005Z,719.69
2016-02-03T01:21:16.708Z,719.63
2016-02-03T01:21:33.520Z,719.41
2016-02-03T01:21:50.551Z,719.62
2016-02-03T01:22:04.428Z,719.44
2016-02-03T01:22:18.335Z,719.46
2016-02-03T01:22:35.835Z,719.59
2016-02-03T01:23:21.978Z,719.51
2016-02-03T01:23:50.103Z,719.49
2016-02-03T01:24:18.686Z,719.4
2016-02-03T01:24:46.952Z,719.51
2016-02-03T01:25:29.269Z,719.72
2016-02-03T01:25:46.331Z,719.67
2016-02-03T01:26:03.272Z,719.25
2016-02-03T01:26:17.568Z,719.34
2016-02-03T01:26:32.162Z,719.52
2016-02-03T01:26:46.631Z,719.67
2016-02-03T01:27:00.772Z,719.49
2016-02-03T01:27:15.602Z,719.66
2016-02-03T01:27:29.399Z,719.25
2016-02-03T01:27:57.729Z,719.55
2016-02-03T01:28:11.856Z,719.28
2016-02-03T01:28:25.903Z,719.37
2016-02-03T01:28:39.621Z,719.5
2016-02-03T01:28:53.949Z,719.2
2016-02-03T01:29:39.749Z,719.28
2016-02-03T01:29:53.827Z,719.35
2016-02-03T01:30:11.001Z,719.15
2016-02-03T01:30:39.095Z,719.24
2016-02-03T01:30:53.158Z,719.26
2016-02-03T01:31:07.598Z,719.24
2016-02-03T01:31:21.989Z,719.32
2016-02-03T01:31:35.832Z,719.28
2016-02-03T01:32:04.023Z,719.48
2016-02-03T01:32:17.867Z,719.31
2016-02-03T01:32:31.882Z,719.34
2016-02-03T01:32:45.851Z,719.28
2016-02-03T01:33:28.245Z,719.42
2016-02-03T01:33:42.417Z,719.12
2016-02-03T01:34:24.715Z,719.26
2016-02-03T01:34:39.247Z,719.23
2016-02-03T01:35:07.344Z,719.13
2016-02-03T01:35:24.438Z,719.03
2016-02-03T01:35:38.704Z,719.26
2016-02-03T01:36:21.362Z,719.2
2016-02-03T01:36:49.862Z,719.18
2016-02-03T01:37:03.896Z,719.13
2016-02-03T01:37:21.146Z,719.3
2016-02-03T01:37:35.365Z,719.09
2016-02-03T01:38:03.242Z,719.45
2016-02-03T01:38:17.117Z,719.31
2016-02-03T01:38:31.601Z,719.12
2016-02-03T01:38:45.898Z,719.14
2016-02-03T01:39:00.117Z,719.16
2016-02-03T01:39:14.183Z,719.24
2016-02-03T01:39:27.761Z,719.19
2016-02-03T01:39:45.043Z,719.09
2016-02-03T01:39:59.027Z,719.24
2016-02-03T01:40:27.483Z,719.44
2016-02-03T01:40:41.827Z,719.22
2016-02-03T01:40:55.593Z,719.36
2016-02-03T01:41:09.517Z,719.25
2016-02-03T01:41:37.407Z,719.04
2016-02-03T01:41:51.360Z,719.2
2016-02-03T01:42:19.582Z,719.41
2016-02-03T01:42:34.332Z,718.98
2016-02-03T01:42:51.535Z,719.14
2016-02-03T01:43:19.866Z,719.27
2016-02-03T01:43:34.007Z,719.06
2016-02-03T01:43:48.179Z,719.38
2016-02-03T01:44:04.260Z,719.39
2016-02-03T01:44:32.447Z,719.31
2016-02-03T01:44:46.651Z,719.42
2016-02-03T01:45:00.885Z,719.42
2016-02-03T01:45:15.121Z,719.51
2016-02-03T01:45:43.621Z,719.5
2016-02-03T01:46:26.468Z,719.35
2016-02-03T01:46:40.812Z,719.18
2016-02-03T01:47:08.783Z,719.1
2016-02-03T01:47:39.876Z,719.23
2016-02-03T01:47:53.673Z,719.12
2016-02-03T01:48:07.537Z,719.43
2016-02-03T01:48:21.865Z,719.32
2016-02-03T01:48:35.849Z,719.05
2016-02-03T01:48:49.927Z,719.21
2016-02-03T01:49:03.851Z,718.89
2016-02-03T01:49:18.523Z,718.91
2016-02-03T01:49:32.757Z,718.96
2016-02-03T01:49:46.695Z,719.04
2016-02-03T01:50:00.804Z,718.88
2016-02-03T01:50:15.010Z,718.96
2016-02-03T01:50:29.229Z,718.95
2016-02-03T01:50:43.588Z,718.93
2016-02-03T01:50:58.057Z,718.84
2016-02-03T01:51:11.731Z,718.97
2016-02-03T01:51:25.856Z,718.97
2016-02-03T01:51:40.013Z,718.86
2016-02-03T01:51:54.029Z,718.82
2016-02-03T01:52:08.313Z,718.95
2016-02-03T01:52:22.204Z,719.15
2016-02-03T01:52:50.157Z,719.05
2016-02-03T01:53:18.474Z,719.09
2016-02-03T01:53:32.803Z,718.95
2016-02-03T01:54:00.897Z,719
2016-02-03T01:54:28.822Z,719.09
2016-02-03T01:54:59.822Z,719.19
2016-02-03T01:55:13.543Z,719.19
2016-02-03T01:55:30.637Z,718.87
2016-02-03T01:55:44.652Z,719.01
2016-02-03T01:55:58.590Z,719.12
2016-02-03T01:56:26.593Z,719.11
2016-02-03T01:56:40.671Z,719.17
2016-02-03T01:56:57.562Z,719
2016-02-03T01:57:25.657Z,718.93
2016-02-03T01:57:39.282Z,719.11
2016-02-03T01:57:53.360Z,719.17
2016-02-03T01:58:07.520Z,719.22
2016-02-03T01:58:21.270Z,719.25
2016-02-03T01:58:35.863Z,719.09
2016-02-03T01:58:50.275Z,719.12
2016-02-03T01:59:04.324Z,718.94
2016-02-03T01:59:18.356Z,719
2016-02-03T01:59:32.981Z,718.92
2016-02-03T02:00:15.139Z,719.03
2016-02-03T02:00:43.342Z,718.81
2016-02-03T02:00:58.248Z,718.95
2016-02-03T02:01:18.064Z,719.29
2016-02-03T02:01:35.642Z,719.08
2016-02-03T02:01:51.158Z,718.92
2016-02-03T02:02:19.629Z,719.29
2016-02-03T02:02:47.864Z,718.93
2016-02-03T02:03:01.645Z,719.08
2016-02-03T02:03:16.007Z,718.84
2016-02-03T02:03:30.367Z,718.95
2016-02-03T02:03:44.804Z,718.92
2016-02-03T02:04:12.712Z,719.07
2016-02-03T02:04:25.541Z,718.93
2016-02-03T02:04:39.322Z,718.98
2016-02-03T02:04:56.478Z,719.07
2016-02-03T02:05:10.184Z,718.92
2016-02-03T02:05:23.872Z,718.84
2016-02-03T02:05:37.872Z,719.09
2016-02-03T02:05:52.075Z,718.83
2016-02-03T02:06:10.155Z,718.94
2016-02-03T02:06:24.358Z,719.05
2016-02-03T02:06:53.467Z,718.96
2016-02-03T02:07:21.550Z,718.67
2016-02-03T02:07:35.425Z,718.75
2016-02-03T02:07:49.221Z,718.8
2016-02-03T02:08:06.239Z,718.91
2016-02-03T02:08:20.067Z,718.81
2016-02-03T02:08:33.286Z,718.9
2016-02-03T02:08:47.567Z,719.16
2016-02-03T02:09:01.817Z,718.88
2016-02-03T02:09:30.070Z,718.66
2016-02-03T02:09:47.992Z,719.32
2016-02-03T02:10:02.133Z,719.64
2016-02-03T02:10:17.416Z,718.99
2016-02-03T02:10:31.697Z,718.88
2016-02-03T02:11:13.999Z,719.09
2016-02-03T02:11:28.561Z,719.24
2016-02-03T02:11:43.077Z,718.83
2016-02-03T02:11:57.452Z,718.95
2016-02-03T02:12:11.470Z,718.96
2016-02-03T02:12:29.142Z,718.95
2016-02-03T02:12:43.642Z,719.03
2016-02-03T02:13:26.020Z,718.98
2016-02-03T02:13:43.004Z,719.24
2016-02-03T02:13:57.441Z,719.15
2016-02-03T02:14:11.568Z,718.95
2016-02-03T02:14:25.881Z,719.01
2016-02-03T02:14:57.339Z,718.94
2016-02-03T02:15:28.311Z,718.8
2016-02-03T02:15:42.217Z,719.1
2016-02-03T02:15:55.842Z,719.02
2016-02-03T02:16:09.611Z,719.03
2016-02-03T02:16:24.954Z,718.98
2016-02-03T02:16:39.361Z,718.97
2016-02-03T02:16:53.111Z,719.03
2016-02-03T02:18:04.442Z,718.87
2016-02-03T02:18:32.304Z,718.69
2016-02-03T02:18:46.788Z,718.9
2016-02-03T02:19:01.163Z,719.01
2016-02-03T02:19:15.213Z,719
2016-02-03T02:19:29.307Z,718.86
2016-02-03T02:19:43.088Z,718.94
2016-02-03T02:19:57.041Z,718.95
2016-02-03T02:20:10.887Z,718.98
2016-02-03T02:20:25.278Z,718.84
2016-02-03T02:20:38.903Z,719.05
2016-02-03T02:20:53.450Z,718.69
2016-02-03T02:21:10.281Z,718.85
2016-02-03T02:21:24.421Z,719.01
2016-02-03T02:21:42.000Z,718.91
2016-02-03T02:21:56.203Z,718.8
2016-02-03T02:22:10.401Z,718.98
2016-02-03T02:22:24.698Z,718.68
2016-02-03T02:22:42.167Z,718.96
2016-02-03T02:22:59.026Z,718.73
2016-02-03T02:23:15.903Z,718.53
2016-02-03T02:23:32.653Z,718.94
2016-02-03T02:24:00.762Z,718.78
2016-02-03T02:24:17.719Z,719
2016-02-03T02:24:46.125Z,718.9
2016-02-03T02:24:59.937Z,718.77
2016-02-03T02:25:13.831Z,718.91
2016-02-03T02:25:28.034Z,718.67
2016-02-03T02:25:42.159Z,718.87
2016-02-03T02:25:55.972Z,718.89
2016-02-03T02:26:10.209Z,718.79
2016-02-03T02:26:24.271Z,718.83
2016-02-03T02:26:38.334Z,718.64
2016-02-03T02:26:52.225Z,718.73
2016-02-03T02:27:06.023Z,718.73
2016-02-03T02:27:20.586Z,719
2016-02-03T02:28:02.773Z,719.02
2016-02-03T02:28:15.901Z,718.89
2016-02-03T02:28:32.558Z,718.99
2016-02-03T02:28:46.901Z,719
2016-02-03T02:29:06.794Z,718.85
2016-02-03T02:29:29.982Z,719.17
2016-02-03T02:29:58.358Z,718.79
2016-02-03T02:30:27.658Z,718.81
2016-02-03T02:30:42.080Z,718.91
2016-02-03T02:31:10.098Z,718.9
2016-02-03T02:31:23.973Z,718.8
2016-02-03T02:31:37.801Z,718.73
2016-02-03T02:31:55.115Z,718.66
2016-02-03T02:32:14.931Z,718.76
2016-02-03T02:32:29.322Z,718.87
2016-02-03T02:33:11.793Z,718.79
2016-02-03T02:33:29.246Z,718.65
2016-02-03T02:33:43.371Z,718.88
2016-02-03T02:33:57.590Z,718.73
2016-02-03T02:34:11.688Z,718.87
2016-02-03T02:34:26.032Z,718.61
2016-02-03T02:34:40.719Z,718.71
2016-02-03T02:35:08.971Z,718.8
2016-02-03T02:35:23.456Z,718.74
2016-02-03T02:35:40.346Z,718.85
2016-02-03T02:35:54.487Z,718.88
2016-02-03T02:36:22.379Z,718.83
2016-02-03T02:36:39.379Z,718.75
2016-02-03T02:36:56.664Z,718.75
2016-02-03T02:37:11.010Z,718.84
2016-02-03T02:37:25.073Z,718.76
2016-02-03T02:37:39.214Z,718.61
2016-02-03T02:37:53.198Z,718.61
2016-02-03T02:38:07.216Z,718.72
2016-02-03T02:38:21.716Z,718.54
2016-02-03T02:38:35.716Z,718.47
2016-02-03T02:38:50.137Z,718.59
2016-02-03T02:39:46.610Z,718.45
2016-02-03T02:40:32.409Z,718.8
2016-02-03T02:40:49.768Z,718.57
2016-02-03T02:41:04.159Z,718.63
2016-02-03T02:41:18.959Z,718.71
2016-02-03T02:41:36.131Z,718.68
2016-02-03T02:41:50.181Z,718.41
2016-02-03T02:42:04.306Z,718.58
2016-02-03T02:42:21.151Z,718.46
2016-02-03T02:42:49.292Z,718.5
2016-02-03T02:43:31.796Z,718.51
2016-02-03T02:43:46.108Z,718.51
2016-02-03T02:44:00.046Z,718.59
2016-02-03T02:44:14.407Z,718.45
2016-02-03T02:44:28.267Z,718.59
2016-02-03T02:44:42.735Z,718.77
2016-02-03T02:44:56.657Z,718.54
2016-02-03T02:45:10.582Z,718.6
2016-02-03T02:45:27.692Z,718.55
2016-02-03T02:45:48.207Z,718.26
2016-02-03T02:46:02.004Z,718.48
2016-02-03T02:46:16.084Z,718.5
2016-02-03T02:46:29.678Z,718.4
2016-02-03T02:46:57.912Z,718.5
2016-02-03T02:47:40.181Z,718.44
2016-02-03T02:48:08.325Z,718.38
2016-02-03T02:48:26.621Z,718.5
2016-02-03T02:48:43.575Z,718.33
2016-02-03T02:49:11.786Z,718.5
2016-02-03T02:49:25.911Z,718.5
2016-02-03T02:49:54.020Z,718.53
2016-02-03T02:50:10.647Z,718.45
2016-02-03T02:50:24.491Z,718.51
2016-02-03T02:50:38.741Z,718.43
2016-02-03T02:51:06.946Z,718.53
2016-02-03T02:51:20.774Z,718.34
2016-02-03T02:51:35.243Z,718.42
2016-02-03T02:52:03.415Z,718.43
2016-02-03T02:52:17.340Z,718.37
2016-02-03T02:52:45.465Z,718.51
2016-02-03T02:52:59.372Z,718.33
2016-02-03T02:53:13.125Z,718.31
2016-02-03T02:53:41.218Z,718.31
2016-02-03T02:53:55.251Z,718.4
2016-02-03T02:54:09.128Z,718.38
2016-02-03T02:55:05.721Z,718.39
2016-02-03T02:55:33.441Z,718.24
2016-02-03T02:55:54.452Z,718.39
2016-02-03T02:56:08.706Z,718.4
2016-02-03T02:56:31.867Z,718.49
2016-02-03T02:57:19.635Z,718.32
2016-02-03T02:58:24.519Z,718.38
2016-02-03T02:58:57.655Z,718.41
2016-02-03T02:59:11.376Z,718.41
2016-02-03T02:59:25.251Z,718.3
2016-02-03T02:59:39.860Z,718.34
2016-02-03T03:00:09.142Z,718.02
2016-02-03T03:00:26.363Z,718.42
2016-02-03T03:00:55.067Z,718.25
2016-02-03T03:01:12.476Z,718.4
2016-02-03T03:02:01.491Z,718.37
2016-02-03T03:02:15.697Z,718.61
2016-02-03T03:02:29.837Z,718.42
2016-02-03T03:03:11.465Z,718.3
2016-02-03T03:03:25.418Z,718.33
2016-02-03T03:03:39.731Z,718.26
2016-02-03T03:03:53.637Z,718.31
2016-02-03T03:04:07.543Z,718.19
2016-02-03T03:04:36.140Z,718.27
2016-02-03T03:04:50.359Z,718.32
2016-02-03T03:05:04.796Z,718.19
2016-02-03T03:05:18.611Z,718.4
2016-02-03T03:05:46.798Z,718.34
2016-02-03T03:06:00.908Z,718.3
2016-02-03T03:06:14.802Z,718.39
2016-02-03T03:06:32.068Z,718.17
2016-02-03T03:07:00.037Z,718.21
2016-02-03T03:07:14.320Z,718.34
2016-02-03T03:07:28.211Z,718.18
2016-02-03T03:07:42.242Z,718.17
2016-02-03T03:07:56.726Z,718.18
2016-02-03T03:08:11.059Z,718.05
2016-02-03T03:08:28.544Z,718.42
2016-02-03T03:08:42.856Z,718.27
2016-02-03T03:09:10.906Z,718.31
2016-02-03T03:09:24.797Z,718.33
2016-02-03T03:09:38.875Z,718.32
2016-02-03T03:09:53.765Z,718.28
2016-02-03T03:10:07.406Z,718.3
2016-02-03T03:10:21.767Z,718.34
2016-02-03T03:10:35.970Z,718.33
2016-02-03T03:11:19.083Z,718.22
2016-02-03T03:11:47.192Z,718.37
2016-02-03T03:12:15.086Z,718.24
2016-02-03T03:12:32.226Z,718.16
2016-02-03T03:12:46.633Z,718.26
2016-02-03T03:13:00.447Z,718.25
2016-02-03T03:13:14.684Z,718.27
2016-02-03T03:13:28.746Z,718.18
2016-02-03T03:13:46.074Z,718.23
2016-02-03T03:14:00.137Z,718.22
2016-02-03T03:14:14.701Z,718.23
2016-02-03T03:14:29.061Z,718.24
2016-02-03T03:14:43.154Z,718.21
2016-02-03T03:14:57.186Z,718.26
2016-02-03T03:15:11.158Z,718.21
2016-02-03T03:15:25.502Z,718.17
2016-02-03T03:15:42.158Z,718.18
2016-02-03T03:15:56.143Z,718.24
2016-02-03T03:16:24.521Z,718.25
2016-02-03T03:16:52.989Z,718.34
2016-02-03T03:17:07.052Z,718.55
2016-02-03T03:17:21.195Z,718.18
2016-02-03T03:17:49.038Z,718.23
2016-02-03T03:18:06.351Z,718.16
2016-02-03T03:18:20.368Z,718.27
2016-02-03T03:18:34.353Z,718.19
2016-02-03T03:18:48.618Z,718.33
2016-02-03T03:19:02.540Z,718.26
2016-02-03T03:19:19.637Z,718.23
2016-02-03T03:19:36.887Z,718.18
2016-02-03T03:19:54.715Z,718.21
2016-02-03T03:20:08.326Z,718.1
2016-02-03T03:20:22.579Z,718.19
2016-02-03T03:20:50.782Z,718.18
2016-02-03T03:21:04.735Z,718.13
2016-02-03T03:21:23.707Z,718.2
2016-02-03T03:22:06.097Z,718.12
2016-02-03T03:22:23.288Z,718.2
2016-02-03T03:22:40.038Z,718.18
2016-02-03T03:22:54.178Z,718.11
2016-02-03T03:23:08.335Z,718.15
2016-02-03T03:23:22.712Z,718.06
2016-02-03T03:23:37.118Z,718.05
2016-02-03T03:23:51.102Z,718.12
2016-02-03T03:24:03.774Z,718.18
2016-02-03T03:24:32.215Z,718.19
2016-02-03T03:24:49.481Z,718.17
2016-02-03T03:25:06.309Z,718.12
2016-02-03T03:25:21.453Z,718.16
2016-02-03T03:25:35.484Z,718.17
2016-02-03T03:26:03.937Z,718.17
2016-02-03T03:26:21.189Z,718.14
2016-02-03T03:26:35.408Z,718.16
2016-02-03T03:26:48.924Z,718.19
2016-02-03T03:27:02.611Z,718.07
2016-02-03T03:27:17.224Z,718.18
2016-02-03T03:27:59.990Z,718.15
2016-02-03T03:28:14.289Z,717.93
2016-02-03T03:28:28.508Z,718.15
2016-02-03T03:28:42.586Z,718.12
2016-02-03T03:28:56.430Z,718.22
2016-02-03T03:29:10.805Z,717.98
2016-02-03T03:29:24.668Z,717.91
2016-02-03T03:29:38.996Z,717.92
2016-02-03T03:29:52.902Z,718.01
2016-02-03T03:30:21.498Z,718.01
2016-02-03T03:30:36.107Z,718.15
2016-02-03T03:30:50.248Z,717.99
2016-02-03T03:31:18.564Z,718.12
2016-02-03T03:31:35.423Z,717.97
2016-02-03T03:32:02.736Z,717.84
2016-02-03T03:32:34.239Z,718.1
2016-02-03T03:32:48.396Z,717.86
2016-02-03T03:33:02.802Z,717.83
2016-02-03T03:33:16.648Z,717.86
2016-02-03T03:33:31.054Z,718.19
2016-02-03T03:33:45.429Z,718.02
2016-02-03T03:33:59.538Z,717.94
2016-02-03T03:34:13.213Z,717.91
2016-02-03T03:34:30.338Z,717.96
2016-02-03T03:34:46.948Z,717.96
2016-02-03T03:35:01.010Z,717.97
2016-02-03T03:35:15.497Z,717.83
2016-02-03T03:35:43.357Z,717.9
2016-02-03T03:35:57.513Z,717.94
2016-02-03T03:36:11.544Z,718.06
2016-02-03T03:36:25.749Z,717.95
2016-02-03T03:36:53.749Z,718.06
2016-02-03T03:37:07.749Z,718.04
2016-02-03T03:37:21.627Z,717.88
2016-02-03T03:37:49.924Z,717.99
2016-02-03T03:38:04.518Z,718.04
2016-02-03T03:38:18.770Z,717.93
2016-02-03T03:38:32.911Z,717.93
2016-02-03T03:38:47.161Z,718.07
2016-02-03T03:39:02.286Z,718.03
2016-02-03T03:39:16.680Z,717.92
2016-02-03T03:39:31.774Z,717.94
2016-02-03T03:39:45.962Z,718.11
2016-02-03T03:40:00.868Z,718
2016-02-03T03:40:42.948Z,717.87
2016-02-03T03:40:57.026Z,717.93
2016-02-03T03:41:11.260Z,717.97
2016-02-03T03:41:25.170Z,717.92
2016-02-03T03:41:39.467Z,718.18
2016-02-03T03:41:57.045Z,718.06
2016-02-03T03:42:25.422Z,717.99
2016-02-03T03:42:43.375Z,717.96
2016-02-03T03:43:00.812Z,717.89
2016-02-03T03:43:32.034Z,717.9
2016-02-03T03:44:00.037Z,718.14
2016-02-03T03:44:13.978Z,717.89
2016-02-03T03:44:42.181Z,717.91
2016-02-03T03:45:10.353Z,717.87
2016-02-03T03:45:56.183Z,717.94
2016-02-03T03:46:10.245Z,717.88
2016-02-03T03:46:24.514Z,717.79
2016-02-03T03:46:38.342Z,717.79
2016-02-03T03:46:55.545Z,717.85
2016-02-03T03:47:09.670Z,717.64
2016-02-03T03:47:55.125Z,717.86
2016-02-03T03:48:09.422Z,717.67
2016-02-03T03:48:26.800Z,717.92
2016-02-03T03:48:47.113Z,717.88
2016-02-03T03:49:15.397Z,717.8
2016-02-03T03:49:29.194Z,717.94
2016-02-03T03:49:43.412Z,717.74
2016-02-03T03:49:58.162Z,717.78
2016-02-03T03:50:43.369Z,717.93
2016-02-03T03:50:58.040Z,717.84
2016-02-03T03:51:25.996Z,717.62
2016-02-03T03:51:40.590Z,717.73
2016-02-03T03:52:08.496Z,717.76
2016-02-03T03:52:22.234Z,717.76
2016-02-03T03:52:36.703Z,717.67
2016-02-03T03:52:53.890Z,717.69
2016-02-03T03:53:08.843Z,717.82
2016-02-03T03:53:25.971Z,717.76
2016-02-03T03:53:40.252Z,717.78
2016-02-03T03:53:53.987Z,717.92
2016-02-03T03:54:08.066Z,717.88
2016-02-03T03:54:22.068Z,717.81
2016-02-03T03:54:39.287Z,717.87
2016-02-03T03:54:59.068Z,717.86
2016-02-03T03:55:16.665Z,717.82
2016-02-03T03:55:59.337Z,717.89
2016-02-03T03:56:13.480Z,717.8
2016-02-03T03:56:27.293Z,717.8
2016-02-03T03:56:54.996Z,717.69
2016-02-03T03:57:22.904Z,717.79
2016-02-03T03:57:39.498Z,717.66
2016-02-03T03:57:56.263Z,717.6
2016-02-03T03:58:10.513Z,717.72
2016-02-03T03:58:24.486Z,717.75
2016-02-03T03:58:38.127Z,717.73
2016-02-03T03:59:06.377Z,717.57
2016-02-03T03:59:20.395Z,717.85
2016-02-03T03:59:34.442Z,717.63
2016-02-03T03:59:51.520Z,717.62
2016-02-03T04:00:05.224Z,717.72
2016-02-03T04:00:36.367Z,717.87